Time;durP1;ratioP1;P1;durP2;ratioP2;P2;SDS_P1;SDS_P2;PMS_P1;PMS_P2;Temp;Humidity;BMP_temperature;BMP_pressure;BME280_temperature;BME280_humidity;BME280_pressure;Samples;Min_cycle;Max_cycle;Signal;HPM_P1;HPM_P2
2022/05/03 00:00:02;;;;;;;4.15;2.13;;;;;;;-145.50;100.00;65435.88;5073870;28;20048;-66
2022/05/03 00:02:32;;;;;;;3.67;1.83;;;;;;;-145.50;100.00;65435.88;5064217;28;20080;-67
2022/05/03 00:05:04;;;;;;;3.08;1.63;;;;;;;-145.50;100.00;65435.88;5072384;28;20051;-66
2022/05/03 00:07:52;;;;;;;3.50;1.70;;;;;;;-145.50;100.00;65435.88;5065307;28;20147;-67
2022/05/03 00:10:24;;;;;;;3.95;1.88;;;;;;;-145.50;100.00;65435.88;5080073;28;20049;-67
2022/05/03 00:13:02;;;;;;;5.03;2.00;;;;;;;-145.50;100.00;65435.88;5077790;28;20055;-67
2022/05/03 00:15:31;;;;;;;2.70;2.10;;;;;;;-145.50;100.00;65435.88;5077445;28;20048;-66
2022/05/03 00:17:58;;;;;;;3.40;2.00;;;;;;;-145.50;100.00;65435.88;5084786;28;20139;-67
2022/05/03 00:20:26;;;;;;;4.95;2.30;;;;;;;-145.50;100.00;65435.88;5067038;28;20052;-67
2022/05/03 00:22:54;;;;;;;3.22;2.17;;;;;;;-145.50;100.00;65435.88;5082431;28;20044;-67
2022/05/03 00:25:21;;;;;;;4.13;2.22;;;;;;;-145.50;100.00;65435.88;5067898;28;20073;-66
2022/05/03 00:27:49;;;;;;;3.78;2.15;;;;;;;-145.50;100.00;65435.88;5081636;28;20066;-66
2022/05/03 00:30:16;;;;;;;2.75;1.98;;;;;;;-145.50;100.00;65435.88;5072910;28;20151;-66
2022/05/03 00:32:43;;;;;;;3.40;1.83;;;;;;;-145.50;100.00;65435.88;5081673;28;20048;-67
2022/05/03 00:35:10;;;;;;;6.13;2.08;;;;;;;-145.50;100.00;65435.88;5071713;28;20053;-67
2022/05/03 00:37:37;;;;;;;6.15;2.42;;;;;;;-145.50;100.00;65435.88;5062713;28;20044;-67
2022/05/03 00:40:05;;;;;;;4.38;2.42;;;;;;;-145.50;100.00;65435.88;5062727;28;20048;-66
2022/05/03 00:42:45;;;;;;;3.70;2.27;;;;;;;-145.50;100.00;65435.88;5070986;28;20044;-66
2022/05/03 00:45:36;;;;;;;4.20;2.13;;;;;;;-145.50;100.00;65435.88;5070962;28;20052;-67
2022/05/03 00:49:00;;;;;;;4.43;2.25;;;;;;;-145.50;100.00;65435.88;5071156;28;20050;-66
2022/05/03 00:52:03;;;;;;;3.95;2.33;;;;;;;-145.50;100.00;65435.88;4970631;28;20054;-66
2022/05/03 00:54:54;;;;;;;3.30;2.40;;;;;;;-145.50;100.00;65435.88;4966113;28;20050;-67
2022/05/03 00:57:41;;;;;;;7.95;2.80;;;;;;;-145.50;100.00;65435.88;4986133;28;20061;-67
2022/05/03 01:00:14;;;;;;;5.95;2.58;;;;;;;-145.50;100.00;65435.88;4974255;28;20050;-66
2022/05/03 01:02:46;;;;;;;3.17;2.30;;;;;;;-145.50;100.00;65435.88;4983487;28;20097;-67
2022/05/03 01:05:18;;;;;;;6.10;2.40;;;;;;;-145.50;100.00;65435.88;4979603;28;20058;-67
2022/05/03 01:07:53;;;;;;;4.00;2.70;;;;;;;-145.50;100.00;65435.88;4975438;28;20508;-66
2022/05/03 01:10:38;;;;;;;6.13;2.67;;;;;;;-145.50;100.00;65435.88;4971462;28;20060;-66
2022/05/03 01:13:29;;;;;;;4.15;2.22;;;;;;;-145.50;100.00;65435.88;4977373;28;20059;-67
2022/05/03 01:16:03;;;;;;;3.63;2.53;;;;;;;-145.50;100.00;65435.88;4968477;28;20064;-66
2022/05/03 01:18:40;;;;;;;5.22;2.72;;;;;;;-145.50;100.00;65435.88;4971142;28;20043;-66
2022/05/03 01:21:22;;;;;;;4.80;2.20;;;;;;;-145.50;100.00;65435.88;4964576;28;20050;-66
2022/05/03 01:24:00;;;;;;;4.95;2.53;;;;;;;-145.50;100.00;65435.88;5062391;28;20082;-66
2022/05/03 01:26:45;;;;;;;7.22;2.80;;;;;;;-145.50;100.00;65435.88;5069205;28;20064;-66
2022/05/03 01:29:25;;;;;;;4.55;2.97;;;;;;;-145.50;100.00;65435.88;5063717;28;20049;-66
2022/05/03 01:31:57;;;;;;;5.00;2.55;;;;;;;-145.50;100.00;65435.88;5069629;28;20059;-67
2022/05/03 01:34:26;;;;;;;4.38;2.90;;;;;;;-145.50;100.00;65435.88;5057251;28;20052;-66
2022/05/03 01:37:30;;;;;;;6.05;2.78;;;;;;;-145.50;100.00;65435.88;5063664;28;20040;-65
2022/05/03 01:40:19;;;;;;;5.15;3.13;;;;;;;-145.50;100.00;65435.88;5062449;28;20163;-65
2022/05/03 01:43:03;;;;;;;5.93;2.85;;;;;;;-145.50;100.00;65435.88;5074408;28;20143;-67
2022/05/03 01:45:30;;;;;;;6.05;3.00;;;;;;;-145.50;100.00;65435.88;5075076;28;20484;-67
2022/05/03 01:51:38;;;;;;;5.00;3.05;;;;;;;-145.50;100.00;65435.88;5060187;28;20049;-66
2022/05/03 01:54:23;;;;;;;5.13;3.10;;;;;;;-145.50;100.00;65435.88;5067993;28;20052;-66
2022/05/03 01:56:59;;;;;;;5.63;3.00;;;;;;;-145.50;100.00;65435.88;5061842;28;20056;-66
2022/05/03 01:59:54;;;;;;;6.78;2.90;;;;;;;-145.50;100.00;65435.88;5071191;28;20044;-66
2022/05/03 02:02:32;;;;;;;4.50;3.08;;;;;;;-145.50;100.00;65435.88;5046371;28;20059;-67
2022/05/03 02:05:06;;;;;;;5.88;3.33;;;;;;;-145.50;100.00;65435.88;5066807;28;20058;-66
2022/05/03 02:07:55;;;;;;;6.50;3.53;;;;;;;-145.50;100.00;65435.88;5062049;28;20529;-67
2022/05/03 02:10:40;;;;;;;4.88;2.97;;;;;;;-145.50;100.00;65435.88;5077185;28;20193;-66
2022/05/03 02:14:44;;;;;;;6.38;3.15;;;;;;;-145.50;100.00;65435.88;5070321;28;20742;-66
2022/05/03 02:16:27;;;;;;;5.07;3.05;;;;;;;-145.50;100.00;65435.88;5056257;28;20068;-67
2022/05/03 02:19:22;;;;;;;4.78;2.80;;;;;;;-145.50;100.00;65435.88;5056954;28;20048;-67
2022/05/03 02:22:06;;;;;;;5.75;3.25;;;;;;;-145.50;100.00;65435.88;5071408;28;20127;-66
2022/05/03 02:24:50;;;;;;;6.18;3.10;;;;;;;-145.50;100.00;65435.88;5075205;28;20604;-66
2022/05/03 02:27:18;;;;;;;7.82;3.45;;;;;;;-145.50;100.00;65435.88;5068262;28;20059;-66
2022/05/03 02:29:48;;;;;;;5.97;3.50;;;;;;;-145.50;100.00;65435.88;5065655;28;20061;-67
2022/05/03 02:32:21;;;;;;;5.53;2.97;;;;;;;-145.50;100.00;65435.88;5061682;28;20053;-67
2022/05/03 02:35:03;;;;;;;5.93;3.20;;;;;;;-145.50;100.00;65435.88;5069566;28;20056;-67
2022/05/03 02:37:36;;;;;;;6.75;3.25;;;;;;;-145.50;100.00;65435.88;5062169;28;20075;-67
2022/05/03 02:40:09;;;;;;;6.43;3.63;;;;;;;-145.50;100.00;65435.88;5068100;28;20051;-67
2022/05/03 02:42:36;;;;;;;7.22;3.55;;;;;;;-145.50;100.00;65435.88;5066297;28;20062;-67
2022/05/03 02:45:04;;;;;;;5.20;3.28;;;;;;;-145.50;100.00;65435.88;5063780;28;20493;-67
2022/05/03 02:47:51;;;;;;;7.65;3.40;;;;;;;-145.50;100.00;65435.88;5062561;28;20068;-67
2022/05/03 02:50:29;;;;;;;5.80;3.45;;;;;;;-145.50;100.00;65435.88;5069653;28;20048;-67
2022/05/03 02:53:06;;;;;;;6.10;3.45;;;;;;;-145.50;100.00;65435.88;5062273;28;20078;-67
2022/05/03 02:55:49;;;;;;;6.07;3.72;;;;;;;-145.50;100.00;65435.88;5077263;28;20083;-67
2022/05/03 02:58:37;;;;;;;9.82;3.53;;;;;;;-145.50;100.00;65435.88;5061661;28;20052;-67
2022/05/03 03:01:48;;;;;;;5.72;3.22;;;;;;;-145.50;100.00;65435.88;5074702;28;20163;-67
2022/05/03 03:04:36;;;;;;;7.07;3.88;;;;;;;-145.50;100.00;65435.88;5069813;28;20062;-66
2022/05/03 03:07:04;;;;;;;7.90;4.43;;;;;;;-145.50;100.00;65435.88;5080863;28;20051;-66
2022/05/03 03:09:44;;;;;;;8.77;4.10;;;;;;;-145.50;100.00;65435.88;5070881;28;20048;-67
2022/05/03 03:12:11;;;;;;;6.60;3.65;;;;;;;-145.50;100.00;65435.88;5069981;28;20048;-67
2022/05/03 03:14:47;;;;;;;6.63;3.83;;;;;;;-145.50;100.00;65435.88;5075918;28;20108;-67
2022/05/03 03:17:20;;;;;;;6.43;3.75;;;;;;;-145.50;100.00;65435.88;5065245;28;20056;-66
2022/05/03 03:19:59;;;;;;;8.30;4.00;;;;;;;-145.50;100.00;65435.88;5072175;28;20080;-67
2022/05/03 03:22:31;;;;;;;6.30;4.00;;;;;;;-145.50;100.00;65435.88;5072370;28;20062;-67
2022/05/03 03:24:58;;;;;;;7.40;4.20;;;;;;;-145.50;100.00;65435.88;5072359;28;20522;-67
2022/05/03 03:27:26;;;;;;;8.35;4.35;;;;;;;-145.50;100.00;65435.88;5073376;28;20456;-67
2022/05/03 03:29:56;;;;;;;9.75;4.40;;;;;;;-145.50;100.00;65435.88;5076072;28;20041;-67
2022/05/03 03:32:27;;;;;;;8.73;4.90;;;;;;;-145.50;100.00;65435.88;5083726;28;20041;-67
2022/05/03 03:34:55;;;;;;;7.78;4.10;;;;;;;-145.50;100.00;65435.88;5073461;28;20494;-66
2022/05/03 03:37:24;;;;;;;8.75;4.72;;;;;;;-145.50;100.00;65435.88;5070148;28;20055;-67
2022/05/03 03:39:50;;;;;;;8.40;4.95;;;;;;;-145.50;100.00;65435.88;5070213;28;20062;-66
2022/05/03 03:42:18;;;;;;;7.68;4.38;;;;;;;-145.50;100.00;65435.88;5076381;28;20716;-67
2022/05/03 03:44:46;;;;;;;7.75;4.68;;;;;;;-145.50;100.00;65435.88;5081512;28;20048;-67
2022/05/03 03:47:13;;;;;;;8.18;4.70;;;;;;;-145.50;100.00;65435.88;5078787;28;20063;-67
2022/05/03 03:49:40;;;;;;;9.10;4.30;;;;;;;-145.50;100.00;65435.88;5072556;28;20053;-67
2022/05/03 03:52:08;;;;;;;9.32;4.63;;;;;;;-145.50;100.00;65435.88;5063716;28;20049;-67
2022/05/03 03:54:35;;;;;;;9.90;4.60;;;;;;;-145.50;100.00;65435.88;5067687;28;20056;-67
2022/05/03 03:57:04;;;;;;;10.60;4.45;;;;;;;-145.50;100.00;65435.88;5064628;28;20079;-67
2022/05/03 03:59:35;;;;;;;8.13;4.55;;;;;;;-145.50;100.00;65435.88;5071284;28;20055;-67
2022/05/03 04:02:02;;;;;;;7.95;4.90;;;;;;;-145.50;100.00;65435.88;5066126;28;20048;-67
2022/05/03 04:04:32;;;;;;;8.40;4.57;;;;;;;-145.50;100.00;65435.88;5074327;28;20048;-67
2022/05/03 04:06:59;;;;;;;8.30;4.20;;;;;;;-145.50;100.00;65435.88;5059755;28;20123;-67
2022/05/03 04:09:27;;;;;;;10.10;4.45;;;;;;;-145.50;100.00;65435.88;5070272;28;20047;-67
2022/05/03 04:11:54;;;;;;;7.57;4.93;;;;;;;-145.50;100.00;65435.88;5071117;28;20049;-67
2022/05/03 04:14:21;;;;;;;9.10;4.75;;;;;;;-145.50;100.00;65435.88;5063568;28;20088;-67
2022/05/03 04:16:47;;;;;;;8.90;4.38;;;;;;;-145.50;100.00;65435.88;5078281;28;20062;-67
2022/05/03 04:19:14;;;;;;;9.50;4.65;;;;;;;-145.50;100.00;65435.88;5069127;28;20044;-66
2022/05/03 04:21:40;;;;;;;7.72;4.43;;;;;;;-145.50;100.00;65435.88;5068374;28;20056;-67
2022/05/03 04:24:07;;;;;;;6.45;4.18;;;;;;;-145.50;100.00;65435.88;5075099;28;20044;-67
2022/05/03 04:26:35;;;;;;;12.27;4.60;;;;;;;-145.50;100.00;65435.88;5080586;28;20931;-67
2022/05/03 04:29:03;;;;;;;8.17;4.47;;;;;;;-145.50;100.00;65435.88;5074810;28;20787;-66
2022/05/03 04:31:34;;;;;;;10.85;4.68;;;;;;;-145.50;100.00;65435.88;5065742;28;20451;-67
2022/05/03 04:34:03;;;;;;;9.90;5.50;;;;;;;-145.50;100.00;65435.88;5066712;28;20045;-66
2022/05/03 04:36:32;;;;;;;8.20;4.57;;;;;;;-145.50;100.00;65435.88;5062573;28;20214;-67
2022/05/03 04:39:00;;;;;;;8.73;4.57;;;;;;;-145.50;100.00;65435.88;5070272;28;20128;-67
2022/05/03 04:41:27;;;;;;;7.60;4.35;;;;;;;-145.50;100.00;65435.88;5064736;28;20409;-67
2022/05/03 04:43:53;;;;;;;8.73;4.63;;;;;;;-145.50;100.00;65435.88;5088223;28;20432;-66
2022/05/03 04:46:21;;;;;;;8.52;4.85;;;;;;;-145.50;100.00;65435.88;5076143;28;20139;-66
2022/05/03 04:48:47;;;;;;;8.23;4.75;;;;;;;-145.50;100.00;65435.88;5070413;28;20070;-66
2022/05/03 04:51:23;;;;;;;9.95;5.28;;;;;;;-145.50;100.00;65435.88;5080645;28;20593;-66
2022/05/03 04:53:50;;;;;;;7.00;4.13;;;;;;;-145.50;100.00;65435.88;5081737;28;20127;-67
2022/05/03 04:56:21;;;;;;;8.38;5.22;;;;;;;-145.50;100.00;65435.88;5079797;28;20130;-67
2022/05/03 04:58:49;;;;;;;8.00;5.05;;;;;;;-145.50;100.00;65435.88;5078038;28;20052;-66
2022/05/03 05:01:17;;;;;;;8.18;5.22;;;;;;;-145.50;100.00;65435.88;5075292;28;20052;-66
2022/05/03 05:03:44;;;;;;;7.77;4.97;;;;;;;-145.50;100.00;65435.88;5064586;28;20495;-66
2022/05/03 05:06:11;;;;;;;8.27;5.43;;;;;;;-145.50;100.00;65435.88;5071136;28;20041;-67
2022/05/03 05:08:38;;;;;;;10.65;5.88;;;;;;;-145.50;100.00;65435.88;5087916;28;20052;-67
2022/05/03 05:11:05;;;;;;;10.02;5.60;;;;;;;-145.50;100.00;65435.88;5073729;28;20052;-67
2022/05/03 05:13:33;;;;;;;13.15;6.35;;;;;;;-145.50;100.00;65435.88;5076274;28;20592;-68
2022/05/03 05:15:59;;;;;;;10.00;5.88;;;;;;;-145.50;100.00;65435.88;5073523;28;20078;-67
2022/05/03 05:18:29;;;;;;;12.65;6.40;;;;;;;-145.50;100.00;65435.88;5078097;28;20894;-67
2022/05/03 05:20:56;;;;;;;12.35;5.63;;;;;;;-145.50;100.00;65435.88;5063999;28;20055;-67
2022/05/03 05:23:26;;;;;;;14.75;6.85;;;;;;;-145.50;100.00;65435.88;5071052;28;20059;-67
2022/05/03 05:25:54;;;;;;;8.27;4.85;;;;;;;-145.50;100.00;65435.88;5069610;28;20057;-67
2022/05/03 05:28:22;;;;;;;10.50;5.65;;;;;;;-145.50;100.00;65435.88;5068418;28;20051;-67
2022/05/03 05:30:51;;;;;;;10.98;5.72;;;;;;;-145.50;100.00;65435.88;5065522;28;20131;-67
2022/05/03 05:33:20;;;;;;;10.70;6.03;;;;;;;-145.50;100.00;65435.88;5061268;28;20052;-67
2022/05/03 05:35:47;;;;;;;10.10;5.55;;;;;;;-145.50;100.00;65435.88;5072353;28;20138;-67
2022/05/03 05:38:16;;;;;;;10.60;6.07;;;;;;;-145.50;100.00;65435.88;5066101;28;20421;-67
2022/05/03 05:40:44;;;;;;;9.48;4.97;;;;;;;-145.50;100.00;65435.88;5053191;28;20048;-67
2022/05/03 05:43:10;;;;;;;11.40;5.70;;;;;;;-145.50;100.00;65435.88;5071777;28;20256;-67
2022/05/03 05:45:38;;;;;;;9.98;5.68;;;;;;;-145.50;100.00;65435.88;5061668;28;20048;-67
2022/05/03 05:48:05;;;;;;;15.98;6.25;;;;;;;-145.50;100.00;65435.88;5083972;28;20048;-68
2022/05/03 05:50:32;;;;;;;19.58;6.03;;;;;;;-145.50;100.00;65435.88;5062901;28;20052;-67
2022/05/03 05:55:43;;;;;;;209.55;22.85;;;;;;;-145.50;100.00;65435.88;5062432;28;20481;-67
2022/05/03 05:58:10;;;;;;;30.77;7.20;;;;;;;-145.50;100.00;65435.88;5064841;28;20072;-67
2022/05/03 06:00:37;;;;;;;16.88;5.82;;;;;;;-145.50;100.00;65435.88;5058996;28;20047;-67
2022/05/03 06:03:05;;;;;;;20.52;5.43;;;;;;;-145.50;100.00;65435.88;5067851;28;20642;-67
2022/05/03 06:05:32;;;;;;;17.98;3.72;;;;;;;-145.50;100.00;65435.88;5072859;28;20052;-68
2022/05/03 06:07:59;;;;;;;10.68;4.00;;;;;;;-145.50;100.00;65435.88;5074477;28;20059;-67
2022/05/03 06:10:26;;;;;;;7.50;3.35;;;;;;;-145.50;100.00;65435.88;5083378;28;20048;-67
2022/05/03 06:12:53;;;;;;;5.22;3.17;;;;;;;-145.50;100.00;65435.88;5062471;28;20044;-68
2022/05/03 06:15:19;;;;;;;4.40;2.85;;;;;;;-145.50;100.00;65435.88;5069442;28;20048;-67
2022/05/03 06:17:46;;;;;;;5.78;2.88;;;;;;;-145.50;100.00;65435.88;5076492;28;20171;-67
2022/05/03 06:20:12;;;;;;;5.53;2.88;;;;;;;-145.50;100.00;65435.88;5066778;28;20051;-67
2022/05/03 06:22:39;;;;;;;5.97;2.70;;;;;;;-145.50;100.00;65435.88;5063593;28;20076;-68
2022/05/03 06:25:08;;;;;;;4.63;2.20;;;;;;;-145.50;100.00;65435.88;5058505;28;20051;-67
2022/05/03 06:27:38;;;;;;;4.32;2.22;;;;;;;-145.50;100.00;65435.88;5069084;28;20048;-68
2022/05/03 06:30:06;;;;;;;4.35;2.25;;;;;;;-145.50;100.00;65435.88;5062549;28;20053;-68
2022/05/03 06:32:34;;;;;;;2.88;1.60;;;;;;;-145.50;100.00;65435.88;5073626;28;20050;-67
2022/05/03 06:35:00;;;;;;;7.30;2.50;;;;;;;-145.50;100.00;65435.88;5070293;28;20270;-67
2022/05/03 06:37:27;;;;;;;3.22;1.90;;;;;;;-145.50;100.00;65435.88;5071657;28;20142;-67
2022/05/03 06:39:53;;;;;;;3.88;1.95;;;;;;;-145.50;100.00;65435.88;5083251;28;20042;-67
2022/05/03 06:42:20;;;;;;;2.63;1.70;;;;;;;-145.50;100.00;65435.88;5065471;28;20053;-67
2022/05/03 06:44:47;;;;;;;4.53;1.98;;;;;;;-145.50;100.00;65435.88;5068855;28;20067;-68
2022/05/03 06:47:14;;;;;;;3.25;1.85;;;;;;;-145.50;100.00;65435.88;5063053;28;20135;-68
2022/05/03 06:49:41;;;;;;;2.78;1.77;;;;;;;-145.50;100.00;65435.88;5065350;28;20047;-68
2022/05/03 06:52:07;;;;;;;5.60;2.03;;;;;;;-145.50;100.00;65435.88;5064537;28;20487;-67
2022/05/03 06:54:33;;;;;;;3.30;2.10;;;;;;;-145.50;100.00;65435.88;5064808;28;20139;-67
2022/05/03 06:57:00;;;;;;;6.18;2.03;;;;;;;-145.50;100.00;65435.88;5076864;28;20055;-68
2022/05/03 06:59:26;;;;;;;3.58;2.10;;;;;;;-145.50;100.00;65435.88;5065534;28;20049;-67
2022/05/03 07:01:53;;;;;;;7.38;2.20;;;;;;;-145.50;100.00;65435.88;5072205;28;20048;-67
2022/05/03 07:04:19;;;;;;;8.73;2.67;;;;;;;-145.50;100.00;65435.88;5058583;28;20056;-67
2022/05/03 07:06:46;;;;;;;6.97;2.53;;;;;;;-145.50;100.00;65435.88;5070393;28;20052;-68
2022/05/03 07:09:12;;;;;;;4.45;2.33;;;;;;;-145.50;100.00;65435.88;5072910;28;20051;-66
2022/05/03 07:11:39;;;;;;;4.20;2.13;;;;;;;-145.50;100.00;65435.88;5065302;28;20048;-66
2022/05/03 07:14:05;;;;;;;4.55;2.08;;;;;;;-145.50;100.00;65435.88;5072123;28;20135;-66
2022/05/03 07:16:32;;;;;;;6.10;2.72;;;;;;;-145.50;100.00;65435.88;5069832;28;20111;-67
2022/05/03 07:24:29;;;;;;;3.45;2.05;;;;;;;-145.50;100.00;65435.88;5082753;28;20143;-66
2022/05/03 07:27:00;;;;;;;8.82;3.10;;;;;;;-145.50;100.00;65435.88;5079644;28;20053;-67
2022/05/03 07:29:26;;;;;;;4.03;2.63;;;;;;;-145.50;100.00;65435.88;5072365;28;20051;-67
2022/05/03 07:31:53;;;;;;;4.22;2.45;;;;;;;-145.50;100.00;65435.88;5067076;28;20116;-67
2022/05/03 07:34:19;;;;;;;5.97;2.90;;;;;;;-145.50;100.00;65435.88;5060263;28;20056;-67
2022/05/03 07:36:46;;;;;;;4.57;2.80;;;;;;;-145.50;100.00;65435.88;5074142;28;20070;-66
2022/05/03 07:39:12;;;;;;;4.57;2.50;;;;;;;-145.50;100.00;65435.88;5065856;28;20056;-66
2022/05/03 07:41:39;;;;;;;4.43;2.60;;;;;;;-145.50;100.00;65435.88;5071802;28;20075;-67
2022/05/03 07:44:05;;;;;;;5.82;3.30;;;;;;;-145.50;100.00;65435.88;5064248;28;20059;-67
2022/05/03 07:46:32;;;;;;;5.68;3.20;;;;;;;-145.50;100.00;65435.88;5066166;28;20049;-67
2022/05/03 07:48:58;;;;;;;5.72;3.38;;;;;;;-145.50;100.00;65435.88;5070032;28;20080;-67
2022/05/03 07:51:25;;;;;;;8.32;3.55;;;;;;;-145.50;100.00;65435.88;5068532;28;20525;-67
2022/05/03 07:53:51;;;;;;;6.60;3.40;;;;;;;-145.50;100.00;65435.88;5072794;28;20058;-67
2022/05/03 07:56:18;;;;;;;7.05;3.00;;;;;;;-145.50;100.00;65435.88;5064020;28;20056;-66
2022/05/03 07:58:44;;;;;;;5.68;3.25;;;;;;;-145.50;100.00;65435.88;5066969;28;20158;-66
2022/05/03 08:01:10;;;;;;;4.68;3.22;;;;;;;-145.50;100.00;65435.88;5064561;28;20485;-66
2022/05/03 08:03:37;;;;;;;4.22;2.65;;;;;;;-145.50;100.00;65435.88;5079977;28;20105;-67
2022/05/03 08:06:03;;;;;;;6.80;3.05;;;;;;;-145.50;100.00;65435.88;5072505;28;20048;-66
2022/05/03 08:08:30;;;;;;;8.15;3.42;;;;;;;-145.50;100.00;65435.88;5051089;28;20066;-66
2022/05/03 08:10:56;;;;;;;7.70;3.88;;;;;;;-145.50;100.00;65435.88;5086231;28;20499;-66
2022/05/03 08:13:23;;;;;;;6.03;3.67;;;;;;;-145.50;100.00;65435.88;5060536;28;20099;-66
2022/05/03 08:15:49;;;;;;;6.95;4.40;;;;;;;-145.50;100.00;65435.88;5069113;28;20054;-66
2022/05/03 08:18:16;;;;;;;5.45;3.70;;;;;;;-145.50;100.00;65435.88;5073915;28;20163;-66
2022/05/03 08:20:43;;;;;;;7.35;4.15;;;;;;;-145.50;100.00;65435.88;5078761;28;20053;-66
2022/05/03 08:23:09;;;;;;;7.22;4.55;;;;;;;-145.50;100.00;65435.88;5075575;28;20056;-67
2022/05/03 08:25:37;;;;;;;12.45;4.70;;;;;;;-145.50;100.00;65435.88;5070748;28;20052;-68
2022/05/03 08:28:04;;;;;;;364.90;30.90;;;;;;;-145.50;100.00;65435.88;5073605;28;20044;-67
2022/05/03 08:30:31;;;;;;;824.90;79.13;;;;;;;-145.50;100.00;65435.88;5065796;28;20055;-68
2022/05/03 08:32:58;;;;;;;104.50;12.85;;;;;;;-145.50;100.00;65435.88;5081201;28;20760;-67
2022/05/03 08:35:24;;;;;;;11.27;4.45;;;;;;;-145.50;100.00;65435.88;5069069;28;20051;-67
2022/05/03 08:43:24;;;;;;;8.20;4.35;;;;;;;-145.50;100.00;65435.88;5072421;28;20054;-67
2022/05/03 08:45:52;;;;;;;10.05;5.13;;;;;;;-145.50;100.00;65435.88;5069852;28;20066;-69
2022/05/03 08:48:27;;;;;;;9.93;4.57;;;;;;;-145.50;100.00;65435.88;5063780;28;20639;-68
2022/05/03 08:50:54;;;;;;;7.07;4.72;;;;;;;-145.50;100.00;65435.88;5067654;28;20052;-67
2022/05/03 08:53:21;;;;;;;6.25;4.75;;;;;;;-145.50;100.00;65435.88;5057245;28;21098;-67
2022/05/03 08:55:50;;;;;;;11.07;5.22;;;;;;;-145.50;100.00;65435.88;5069603;28;20156;-67
2022/05/03 08:58:18;;;;;;;9.50;5.10;;;;;;;-145.50;100.00;65435.88;5045527;28;20044;-67
2022/05/03 09:00:45;;;;;;;7.20;4.80;;;;;;;-145.50;100.00;65435.88;5082457;28;20044;-67
2022/05/03 09:03:12;;;;;;;11.27;5.47;;;;;;;-145.50;100.00;65435.88;5076104;28;20048;-67
2022/05/03 09:05:44;;;;;;;9.63;5.70;;;;;;;-145.50;100.00;65435.88;5080241;28;20051;-67
2022/05/03 09:08:12;;;;;;;8.55;5.82;;;;;;;-145.50;100.00;65435.88;5071944;28;20557;-67
2022/05/03 09:10:38;;;;;;;7.80;5.40;;;;;;;-145.50;100.00;65435.88;5069726;28;20111;-67
2022/05/03 09:13:26;;;;;;;9.13;5.55;;;;;;;-145.50;100.00;65435.88;5079167;28;20048;-67
2022/05/03 09:15:56;;;;;;;9.45;5.53;;;;;;;-145.50;100.00;65435.88;5073606;28;20068;-68
2022/05/03 09:18:26;;;;;;;8.65;5.88;;;;;;;-145.50;100.00;65435.88;5073961;28;20059;-68
2022/05/03 09:23:54;;;;;;;8.55;6.07;;;;;;;-145.50;100.00;65435.88;5069542;28;20048;-68
2022/05/03 09:26:22;;;;;;;11.02;6.70;;;;;;;-145.50;100.00;65435.88;5068383;28;20047;-69
2022/05/03 09:28:52;;;;;;;;;;;;;;;-145.50;100.00;65435.88;5073159;28;20135;-68
2022/05/03 09:31:36;;;;;;;11.05;6.72;;;;;;;-145.50;100.00;65435.88;5075404;28;20002;-68
2022/05/03 09:34:18;;;;;;;7.72;5.80;;;;;;;-145.50;100.00;65435.88;5060611;28;20084;-68
2022/05/03 09:36:50;;;;;;;9.32;6.45;;;;;;;-145.50;100.00;65435.88;5073636;28;20131;-68
2022/05/03 09:39:43;;;;;;;8.82;5.95;;;;;;;-145.50;100.00;65435.88;5064086;28;20055;-68
2022/05/03 09:42:15;;;;;;;9.68;6.47;;;;;;;-145.50;100.00;65435.88;5071691;28;20495;-68
2022/05/03 09:45:00;;;;;;;12.55;6.28;;;;;;;-145.50;100.00;65435.88;5062968;28;20377;-69
2022/05/03 09:47:33;;;;;;;12.20;7.07;;;;;;;-145.50;100.00;65435.88;5062691;28;20574;-68
2022/05/03 09:50:00;;;;;;;13.10;7.28;;;;;;;-145.50;100.00;65435.88;5062002;28;20131;-68
2022/05/03 09:52:33;;;;;;;28.38;8.45;;;;;;;-145.50;100.00;65435.88;5070110;28;20136;-68
2022/05/03 09:55:05;;;;;;;22.27;8.35;;;;;;;-145.50;100.00;65435.88;5068738;28;20047;-67
2022/05/03 09:57:37;;;;;;;10.30;7.35;;;;;;;-145.50;100.00;65435.88;5077121;28;20135;-68
2022/05/03 10:00:05;;;;;;;11.27;6.93;;;;;;;-145.50;100.00;65435.88;5079248;28;20139;-68
2022/05/03 10:02:32;;;;;;;9.80;7.32;;;;;;;-145.50;100.00;65435.88;5062003;28;20494;-68
2022/05/03 10:04:59;;;;;;;11.57;7.68;;;;;;;-145.50;100.00;65435.88;5069499;28;20084;-68
2022/05/03 10:07:26;;;;;;;11.25;7.70;;;;;;;-145.50;100.00;65435.88;5062745;28;20048;-69
2022/05/03 10:09:53;;;;;;;11.10;8.03;;;;;;;-145.50;100.00;65435.88;5068914;28;20049;-69
2022/05/03 10:12:20;;;;;;;15.00;8.20;;;;;;;-145.50;100.00;65435.88;5062513;28;20135;-68
2022/05/03 10:14:48;;;;;;;9.50;7.28;;;;;;;-145.50;100.00;65435.88;5078811;28;20094;-68
2022/05/03 10:20:36;;;;;;;13.15;7.63;;;;;;;-145.50;100.00;65435.88;5075087;28;20501;-67
2022/05/03 10:23:20;;;;;;;15.02;8.85;;;;;;;-145.50;100.00;65435.88;5078822;28;20052;-68
2022/05/03 10:25:46;;;;;;;12.85;8.02;;;;;;;-145.50;100.00;65435.88;5082342;28;20463;-69
2022/05/03 10:28:14;;;;;;;10.38;7.90;;;;;;;-145.50;100.00;65435.88;5076621;28;20057;-69
2022/05/03 10:31:07;;;;;;;9.32;6.97;;;;;;;-145.50;100.00;65435.88;5072996;28;20121;-69
2022/05/03 10:33:35;;;;;;;12.98;7.25;;;;;;;-145.50;100.00;65435.88;5083749;28;20079;-69
2022/05/03 10:36:02;;;;;;;;;;;;;;;-145.50;100.00;65435.88;5074368;28;20051;-68
2022/05/03 10:38:35;;;;;;;12.60;7.88;;;;;;;-145.50;100.00;65435.88;5081433;28;19920;-68
2022/05/03 10:41:02;;;;;;;13.52;8.50;;;;;;;-145.50;100.00;65435.88;5069227;28;20056;-68
2022/05/03 10:43:29;;;;;;;11.57;8.15;;;;;;;-145.50;100.00;65435.88;5065914;28;20059;-68
2022/05/03 10:46:09;;;;;;;10.52;8.32;;;;;;;-145.50;100.00;65435.88;5077012;28;20047;-69
2022/05/03 10:48:37;;;;;;;11.55;7.43;;;;;;;-145.50;100.00;65435.88;5068212;28;20052;-68
2022/05/03 10:51:04;;;;;;;11.98;7.70;;;;;;;-145.50;100.00;65435.88;5071506;28;20041;-69
2022/05/03 10:53:33;;;;;;;10.55;7.00;;;;;;;-145.50;100.00;65435.88;5063348;28;20055;-69
2022/05/03 10:56:19;;;;;;;9.15;6.85;;;;;;;-145.50;100.00;65435.88;5064264;28;20067;-69
2022/05/03 10:59:10;;;;;;;10.80;8.15;;;;;;;-145.50;100.00;65435.88;5057424;28;20139;-69
2022/05/03 11:01:55;;;;;;;11.25;7.38;;;;;;;-145.50;100.00;65435.88;5068951;28;20044;-69
2022/05/03 11:04:24;;;;;;;10.25;7.13;;;;;;;-145.50;100.00;65435.88;5062500;28;20045;-68
2022/05/03 11:06:51;;;;;;;11.85;7.80;;;;;;;-145.50;100.00;65435.88;5067800;28;20052;-69
2022/05/03 11:09:26;;;;;;;11.70;8.18;;;;;;;-145.50;100.00;65435.88;5058064;28;20059;-69
2022/05/03 11:11:54;;;;;;;13.35;7.50;;;;;;;-145.50;100.00;65435.88;5063431;28;20055;-69
2022/05/03 11:14:21;;;;;;;11.00;7.32;;;;;;;-145.50;100.00;65435.88;5068378;28;20402;-70
2022/05/03 11:16:52;;;;;;;11.15;7.40;;;;;;;-145.50;100.00;65435.88;5069942;28;20048;-69
2022/05/03 11:19:24;;;;;;;10.20;7.40;;;;;;;-145.50;100.00;65435.88;5072538;28;20048;-68
2022/05/03 11:21:52;;;;;;;10.73;7.15;;;;;;;-145.50;100.00;65435.88;5069616;28;20523;-69
2022/05/03 11:24:30;;;;;;;9.55;7.40;;;;;;;-145.50;100.00;65435.88;5074780;28;20059;-69
2022/05/03 11:27:00;;;;;;;;;;;;;;;-145.50;100.00;65435.88;5064733;28;20516;-68
2022/05/03 11:29:32;;;;;;;9.50;7.13;;;;;;;-145.50;100.00;65435.88;5075729;28;19920;-69
2022/05/03 11:31:59;;;;;;;11.15;7.75;;;;;;;-145.50;100.00;65435.88;5063593;28;20048;-69
2022/05/03 11:34:26;;;;;;;10.27;7.43;;;;;;;-145.50;100.00;65435.88;5081461;28;20527;-68
2022/05/03 11:36:53;;;;;;;9.63;6.75;;;;;;;-145.50;100.00;65435.88;5082036;28;20052;-68
2022/05/03 11:39:22;;;;;;;10.45;7.88;;;;;;;-145.50;100.00;65435.88;5069798;28;20051;-69
2022/05/03 11:41:49;;;;;;;10.13;7.75;;;;;;;-145.50;100.00;65435.88;5090453;28;20040;-68
2022/05/03 11:44:16;;;;;;;10.27;7.32;;;;;;;-145.50;100.00;65435.88;5080300;28;20070;-68
2022/05/03 11:46:44;;;;;;;10.02;7.63;;;;;;;-145.50;100.00;65435.88;5074537;28;20040;-68
2022/05/03 11:49:12;;;;;;;14.35;8.52;;;;;;;-145.50;100.00;65435.88;5068154;28;20044;-69